Time;durP1;ratioP1;P1;durP2;ratioP2;P2;SDS_P1;SDS_P2;PMS_P1;PMS_P2;Temp;Humidity;BMP_temperature;BMP_pressure;BME280_temperature;BME280_humidity;BME280_pressure;Samples;Min_cycle;Max_cycle;Signal;HPM_P1;HPM_P2
2022/01/30 00:00:09;;;;;;;8.13;2.85;;;;;;;;;;5020658;28;20064;-83
2022/01/30 00:02:35;;;;;;;4.22;2.22;;;;;;;;;;5014465;28;20477;-80
2022/01/30 00:05:00;;;;;;;4.50;2.63;;;;;;;;;;5017762;28;20037;-80
2022/01/30 00:07:26;;;;;;;4.57;2.92;;;;;;;;;;5020775;28;20034;-81
2022/01/30 00:09:51;;;;;;;7.55;3.03;;;;;;;;;;5018306;28;20037;-79
2022/01/30 00:12:23;;;;;;;9.25;3.70;;;;;;;;;;5021442;28;20021;-80
2022/01/30 00:14:53;;;;;;;7.90;3.03;;;;;;;;;;5012680;28;20088;-77
2022/01/30 00:17:20;;;;;;;6.00;3.28;;;;;;;;;;5017829;28;20442;-77
2022/01/30 00:19:52;;;;;;;7.25;2.85;;;;;;;;;;5021427;28;20120;-79
2022/01/30 00:24:56;;;;;;;6.20;3.88;;;;;;;;;;5020675;28;20357;-80
2022/01/30 00:27:31;;;;;;;5.13;3.22;;;;;;;;;;5022579;28;20036;-80
2022/01/30 00:29:57;;;;;;;6.55;2.55;;;;;;;;;;5023510;28;20628;-79
2022/01/30 00:32:23;;;;;;;5.60;2.53;;;;;;;;;;5014979;28;20104;-79
2022/01/30 00:34:49;;;;;;;4.20;2.65;;;;;;;;;;5012907;28;20026;-80
2022/01/30 00:37:15;;;;;;;7.75;4.20;;;;;;;;;;5018783;28;20029;-80
2022/01/30 00:39:41;;;;;;;7.43;3.58;;;;;;;;;;5023489;28;20022;-78
2022/01/30 00:42:07;;;;;;;6.93;3.55;;;;;;;;;;5020444;28;20021;-78
2022/01/30 00:44:32;;;;;;;8.93;2.88;;;;;;;;;;5021404;28;20155;-79
2022/01/30 00:46:58;;;;;;;3.00;2.00;;;;;;;;;;5024935;28;20036;-82
2022/01/30 00:49:25;;;;;;;7.78;3.47;;;;;;;;;;5019783;28;20022;-80
2022/01/30 00:51:50;;;;;;;5.15;2.60;;;;;;;;;;5018619;28;20377;-81
2022/01/30 00:54:16;;;;;;;6.40;3.22;;;;;;;;;;5021897;28;20030;-79
2022/01/30 00:56:42;;;;;;;5.82;3.67;;;;;;;;;;5019053;28;20029;-78
2022/01/30 00:59:07;;;;;;;6.88;3.80;;;;;;;;;;5023969;28;20060;-79
2022/01/30 01:01:33;;;;;;;6.90;3.70;;;;;;;;;;5023834;28;20033;-80
2022/01/30 01:03:59;;;;;;;6.07;3.15;;;;;;;;;;5020448;28;20021;-79
2022/01/30 01:06:24;;;;;;;6.40;3.45;;;;;;;;;;5017554;28;20128;-80
2022/01/30 01:08:58;;;;;;;5.30;2.83;;;;;;;;;;5021237;28;20025;-80
2022/01/30 01:24:25;;;;;;;5.13;3.05;;;;;;;;;;5019475;28;20129;-79
2022/01/30 01:26:51;;;;;;;4.25;2.67;;;;;;;;;;5023453;28;20072;-80
2022/01/30 01:29:18;;;;;;;5.75;3.10;;;;;;;;;;5013094;28;20034;-80
2022/01/30 01:31:43;;;;;;;4.47;2.10;;;;;;;;;;5019270;28;20117;-80
2022/01/30 01:36:38;;;;;;;6.32;2.88;;;;;;;;;;5020398;28;20029;-81
2022/01/30 01:39:04;;;;;;;3.92;2.45;;;;;;;;;;5015889;28;20026;-79
2022/01/30 01:41:32;;;;;;;4.65;2.67;;;;;;;;;;5012782;28;20087;-80
2022/01/30 01:43:58;;;;;;;4.55;2.35;;;;;;;;;;5024863;28;20026;-81
2022/01/30 01:46:31;;;;;;;5.82;3.03;;;;;;;;;;5019939;28;20064;-81
2022/01/30 01:48:56;;;;;;;3.30;2.30;;;;;;;;;;5024221;28;20481;-79
2022/01/30 01:51:30;;;;;;;4.30;2.25;;;;;;;;;;5020983;28;20060;-81
2022/01/30 01:53:56;;;;;;;4.90;2.50;;;;;;;;;;5026459;28;20561;-78
2022/01/30 01:56:23;;;;;;;3.65;1.98;;;;;;;;;;5015502;28;20454;-78
2022/01/30 01:58:50;;;;;;;5.38;2.47;;;;;;;;;;5013557;28;20037;-80
2022/01/30 02:01:16;;;;;;;4.90;2.85;;;;;;;;;;5015147;28;20040;-80
2022/01/30 02:03:43;;;;;;;4.88;2.60;;;;;;;;;;5016118;28;20397;-80
2022/01/30 02:06:15;;;;;;;5.75;2.83;;;;;;;;;;5018629;28;20435;-80
2022/01/30 02:08:49;;;;;;;11.90;4.15;;;;;;;;;;5018072;28;20129;-80
2022/01/30 02:11:31;;;;;;;7.43;2.70;;;;;;;;;;5025205;28;20029;-79
2022/01/30 02:27:27;;;;;;;3.72;2.60;;;;;;;;;;5014782;28;20076;-79
2022/01/30 02:29:53;;;;;;;4.03;2.30;;;;;;;;;;5013836;28;20104;-79
2022/01/30 02:32:19;;;;;;;3.08;2.08;;;;;;;;;;5015979;28;20314;-80
2022/01/30 02:34:45;;;;;;;5.45;2.20;;;;;;;;;;5033640;28;20033;-80
2022/01/30 02:37:15;;;;;;;5.40;2.92;;;;;;;;;;5023752;28;20044;-81
2022/01/30 02:39:40;;;;;;;4.15;2.30;;;;;;;;;;5021504;28;20378;-78
2022/01/30 02:42:06;;;;;;;4.35;2.50;;;;;;;;;;5012779;28;20038;-80
2022/01/30 02:44:47;;;;;;;4.80;2.80;;;;;;;;;;5011808;28;20025;-80
2022/01/30 02:47:24;;;;;;;6.10;3.70;;;;;;;;;;5017858;28;20021;-79
2022/01/30 02:52:36;;;;;;;6.13;2.85;;;;;;;;;;5021981;28;20164;-79
2022/01/30 02:55:02;;;;;;;6.25;3.28;;;;;;;;;;5025613;28;20049;-80
2022/01/30 02:57:28;;;;;;;4.95;2.08;;;;;;;;;;5020457;28;20026;-80
2022/01/30 02:59:53;;;;;;;3.53;2.42;;;;;;;;;;5016385;28;20037;-81
2022/01/30 03:02:19;;;;;;;5.22;2.30;;;;;;;;;;5016619;28;20437;-80
2022/01/30 03:04:44;;;;;;;4.07;2.33;;;;;;;;;;5020311;28;20117;-78
2022/01/30 03:07:10;;;;;;;4.07;2.83;;;;;;;;;;5017103;28;20092;-80
2022/01/30 03:09:36;;;;;;;5.50;2.80;;;;;;;;;;5014651;28;20037;-80
2022/01/30 03:12:03;;;;;;;5.75;3.15;;;;;;;;;;5020599;28;20033;-81
2022/01/30 03:14:29;;;;;;;5.68;3.30;;;;;;;;;;5020493;28;20528;-81
2022/01/30 03:16:54;;;;;;;3.80;2.42;;;;;;;;;;5019537;28;20037;-79
2022/01/30 03:19:20;;;;;;;9.07;3.72;;;;;;;;;;5015882;28;20037;-81
2022/01/30 03:21:46;;;;;;;4.40;2.40;;;;;;;;;;5022469;28;20065;-80
2022/01/30 03:24:11;;;;;;;5.22;2.88;;;;;;;;;;5019476;28;20059;-81
2022/01/30 03:26:39;;;;;;;5.07;3.03;;;;;;;;;;5013579;28;20448;-80
2022/01/30 03:29:07;;;;;;;11.15;6.13;;;;;;;;;;5013109;28;20061;-79
2022/01/30 03:31:38;;;;;;;10.45;6.03;;;;;;;;;;5021000;28;20472;-78
2022/01/30 03:34:05;;;;;;;3.88;2.95;;;;;;;;;;5019059;28;20038;-80
2022/01/30 03:36:31;;;;;;;10.13;4.35;;;;;;;;;;5017016;28;20049;-79
2022/01/30 03:38:58;;;;;;;6.72;3.83;;;;;;;;;;5015423;28;20034;-80
2022/01/30 03:41:25;;;;;;;9.27;5.30;;;;;;;;;;5015318;28;20033;-80
2022/01/30 03:43:51;;;;;;;7.57;4.25;;;;;;;;;;5014935;28;20079;-80
2022/01/30 03:46:21;;;;;;;5.90;3.17;;;;;;;;;;5017154;28;20030;-79
2022/01/30 03:48:46;;;;;;;8.68;5.32;;;;;;;;;;5018506;28;20064;-81
2022/01/30 03:51:13;;;;;;;14.38;6.13;;;;;;;;;;5022135;28;20084;-80
2022/01/30 03:53:38;;;;;;;7.68;3.15;;;;;;;;;;5015111;28;20037;-79
2022/01/30 03:56:04;;;;;;;3.30;2.53;;;;;;;;;;5023639;28;20355;-79
2022/01/30 03:58:31;;;;;;;5.82;3.03;;;;;;;;;;5012762;28;20040;-79
2022/01/30 04:00:57;;;;;;;7.43;3.88;;;;;;;;;;5024962;28;20025;-78
2022/01/30 04:03:22;;;;;;;4.57;2.75;;;;;;;;;;5022059;28;20366;-80
2022/01/30 04:05:48;;;;;;;2.80;1.80;;;;;;;;;;5016626;28;20018;-79
2022/01/30 04:08:14;;;;;;;3.63;2.40;;;;;;;;;;5021234;28;20030;-80
2022/01/30 04:10:39;;;;;;;6.00;2.75;;;;;;;;;;5016576;28;20117;-79
2022/01/30 04:13:06;;;;;;;4.13;2.78;;;;;;;;;;5020079;28;20103;-79
2022/01/30 04:15:32;;;;;;;6.88;2.83;;;;;;;;;;5012355;28;20032;-79
2022/01/30 04:17:57;;;;;;;5.78;2.70;;;;;;;;;;5015758;28;20465;-80
2022/01/30 04:20:23;;;;;;;4.28;2.38;;;;;;;;;;5019135;28;20030;-80
2022/01/30 04:22:49;;;;;;;3.03;1.88;;;;;;;;;;5018105;28;20052;-80
2022/01/30 04:25:14;;;;;;;5.75;2.40;;;;;;;;;;5016782;28;20032;-79
2022/01/30 04:27:40;;;;;;;5.32;2.42;;;;;;;;;;5012776;28;20068;-80
2022/01/30 04:30:09;;;;;;;2.25;1.83;;;;;;;;;;5014156;28;20038;-79
2022/01/30 04:32:40;;;;;;;4.35;3.00;;;;;;;;;;5024478;28;20061;-80
2022/01/30 04:35:12;;;;;;;7.38;3.20;;;;;;;;;;5021174;28;20032;-80
2022/01/30 04:38:07;;;;;;;8.38;3.88;;;;;;;;;;5026704;28;20080;-79
2022/01/30 05:02:52;;;;;;;9.43;4.93;;;;;;;;;;5016153;28;20080;-79
2022/01/30 05:07:35;;;;;;;8.40;4.03;;;;;;;;;;5024299;28;20040;-79
2022/01/30 05:10:00;;;;;;;8.45;5.00;;;;;;;;;;5023726;28;20025;-80
2022/01/30 05:12:33;;;;;;;9.38;4.30;;;;;;;;;;5018827;28;20366;-79
2022/01/30 05:14:59;;;;;;;10.32;4.38;;;;;;;;;;5023587;28;20109;-80
2022/01/30 05:17:24;;;;;;;6.18;3.33;;;;;;;;;;5025238;28;20108;-80
2022/01/30 05:19:50;;;;;;;6.28;3.70;;;;;;;;;;5019482;28;20461;-80
2022/01/30 05:22:16;;;;;;;5.25;3.58;;;;;;;;;;5025502;28;20038;-80
2022/01/30 05:24:41;;;;;;;7.55;3.75;;;;;;;;;;5024765;28;20065;-80
2022/01/30 05:27:08;;;;;;;7.07;4.13;;;;;;;;;;5025493;28;20461;-80
2022/01/30 05:29:33;;;;;;;6.28;3.25;;;;;;;;;;5023931;28;20360;-81
2022/01/30 05:31:59;;;;;;;4.45;2.85;;;;;;;;;;5019567;28;20033;-80
2022/01/30 05:34:25;;;;;;;7.72;3.22;;;;;;;;;;5017776;28;20030;-79
2022/01/30 05:36:52;;;;;;;5.03;3.45;;;;;;;;;;5012550;28;20532;-80
2022/01/30 05:39:18;;;;;;;5.65;2.72;;;;;;;;;;5018854;28;20058;-80
2022/01/30 05:41:43;;;;;;;9.18;3.60;;;;;;;;;;5021559;28;20516;-79
2022/01/30 05:44:13;;;;;;;4.97;3.10;;;;;;;;;;5016508;28;20029;-79
2022/01/30 05:46:48;;;;;;;4.88;3.22;;;;;;;;;;5011622;28;20037;-79
2022/01/30 05:49:14;;;;;;;7.72;4.43;;;;;;;;;;5017167;28;20025;-79
2022/01/30 05:51:40;;;;;;;6.65;3.70;;;;;;;;;;5014830;28;20085;-79
2022/01/30 05:54:05;;;;;;;12.93;5.72;;;;;;;;;;5020839;28;20102;-79
2022/01/30 05:56:31;;;;;;;15.98;6.88;;;;;;;;;;5021014;28;20033;-80
2022/01/30 05:58:57;;;;;;;15.73;6.78;;;;;;;;;;5015973;28;20374;-79
2022/01/30 06:01:22;;;;;;;8.57;5.05;;;;;;;;;;5013900;28;20038;-78
2022/01/30 06:03:48;;;;;;;9.75;5.45;;;;;;;;;;5014247;28;20489;-79
2022/01/30 06:06:13;;;;;;;8.60;4.85;;;;;;;;;;5017683;28;20049;-79
2022/01/30 06:08:43;;;;;;;10.27;5.53;;;;;;;;;;5020537;28;20100;-79
2022/01/30 06:11:10;;;;;;;9.15;4.55;;;;;;;;;;5020442;28;20148;-80
2022/01/30 06:13:36;;;;;;;8.52;5.38;;;;;;;;;;5018673;28;20740;-79
2022/01/30 06:16:01;;;;;;;9.10;5.13;;;;;;;;;;5017650;28;20064;-80
2022/01/30 06:18:27;;;;;;;9.65;5.65;;;;;;;;;;5020210;28;20511;-79
2022/01/30 06:20:53;;;;;;;11.27;5.85;;;;;;;;;;5013288;28;20047;-80
2022/01/30 06:23:22;;;;;;;10.52;5.45;;;;;;;;;;5013561;28;20057;-80
2022/01/30 06:25:48;;;;;;;7.32;5.00;;;;;;;;;;5015164;28;20029;-79
2022/01/30 06:28:16;;;;;;;9.55;5.05;;;;;;;;;;5020914;28;20045;-80
2022/01/30 06:30:41;;;;;;;10.10;5.72;;;;;;;;;;5014846;28;20447;-79
2022/01/30 06:33:07;;;;;;;12.70;6.90;;;;;;;;;;5014165;28;20030;-78
2022/01/30 06:35:32;;;;;;;10.20;7.15;;;;;;;;;;5013296;28;20488;-79
2022/01/30 06:37:58;;;;;;;12.52;6.95;;;;;;;;;;5011640;28;20029;-79
2022/01/30 06:40:23;;;;;;;18.88;8.27;;;;;;;;;;5016582;28;20108;-78
2022/01/30 06:42:49;;;;;;;14.32;7.63;;;;;;;;;;5014566;28;20025;-79
2022/01/30 06:45:18;;;;;;;16.30;7.53;;;;;;;;;;5012092;28;20018;-78
2022/01/30 06:47:45;;;;;;;15.60;7.38;;;;;;;;;;5012221;28;20033;-78
2022/01/30 06:50:11;;;;;;;13.98;7.20;;;;;;;;;;5012373;28;20525;-79
2022/01/30 06:52:38;;;;;;;15.13;6.70;;;;;;;;;;5009673;28;20061;-80
2022/01/30 06:55:05;;;;;;;21.77;10.13;;;;;;;;;;5013609;28;20057;-78
2022/01/30 06:57:30;;;;;;;19.55;9.27;;;;;;;;;;5005948;28;20392;-78
2022/01/30 06:59:56;;;;;;;19.35;10.63;;;;;;;;;;5009334;28;20038;-79
2022/01/30 07:02:22;;;;;;;14.88;7.80;;;;;;;;;;5012379;28;20064;-79
2022/01/30 07:19:00;;;;;;;37.78;21.40;;;;;;;;;;5090324;27;20385;-79
2022/01/30 07:21:25;;;;;;;28.55;15.52;;;;;;;;;;5075243;28;20082;-78
2022/01/30 07:23:51;;;;;;;19.42;9.82;;;;;;;;;;5068586;28;20082;-79
2022/01/30 07:26:16;;;;;;;16.23;8.85;;;;;;;;;;5080523;28;20048;-79
2022/01/30 07:28:42;;;;;;;17.23;8.93;;;;;;;;;;5072868;28;20113;-78
2022/01/30 07:31:07;;;;;;;17.20;8.68;;;;;;;;;;5070421;28;20361;-78
2022/01/30 07:33:35;;;;;;;20.63;11.07;;;;;;;;;;5074015;28;20082;-79
2022/01/30 07:36:01;;;;;;;19.92;10.07;;;;;;;;;;5068995;28;20049;-79
2022/01/30 07:38:27;;;;;;;16.63;9.55;;;;;;;;;;5067955;28;20029;-79
2022/01/30 07:40:53;;;;;;;17.33;9.15;;;;;;;;;;5070769;28;20043;-79
2022/01/30 07:43:19;;;;;;;23.63;10.40;;;;;;;;;;5072402;28;20028;-78
2022/01/30 07:45:45;;;;;;;13.38;8.18;;;;;;;;;;5067733;28;20036;-79
2022/01/30 07:48:12;;;;;;;16.85;7.93;;;;;;;;;;5069778;28;20031;-79
2022/01/30 07:50:37;;;;;;;11.63;7.13;;;;;;;;;;5068920;28;20028;-77
2022/01/30 07:53:03;;;;;;;13.32;7.10;;;;;;;;;;5066762;28;20502;-80
2022/01/30 07:55:28;;;;;;;15.27;8.73;;;;;;;;;;5066571;28;20488;-80
2022/01/30 07:57:55;;;;;;;15.52;7.63;;;;;;;;;;5068681;28;20461;-78
2022/01/30 08:00:21;;;;;;;15.32;7.60;;;;;;;;;;5071080;28;20047;-79
2022/01/30 08:02:47;;;;;;;17.67;10.00;;;;;;;;;;5067198;28;20674;-79
2022/01/30 08:05:13;;;;;;;13.95;7.65;;;;;;;;;;5071798;28;20119;-79
2022/01/30 08:07:38;;;;;;;17.70;8.98;;;;;;;;;;5070575;28;20590;-79
2022/01/30 08:10:04;;;;;;;15.90;7.35;;;;;;;;;;5079905;28;20017;-78
2022/01/30 08:12:30;;;;;;;17.17;8.07;;;;;;;;;;5073391;28;20055;-78
2022/01/30 08:14:55;;;;;;;30.88;12.98;;;;;;;;;;5074598;28;20028;-79
2022/01/30 08:17:23;;;;;;;18.25;8.50;;;;;;;;;;5076705;28;20040;-78
2022/01/30 08:19:50;;;;;;;41.10;16.63;;;;;;;;;;5059080;28;20036;-79
2022/01/30 08:22:16;;;;;;;21.90;9.70;;;;;;;;;;5057583;28;20036;-78
2022/01/30 08:24:42;;;;;;;31.08;16.45;;;;;;;;;;5054030;28;20039;-77
2022/01/30 08:27:07;;;;;;;27.05;13.00;;;;;;;;;;5057072;28;20071;-77
2022/01/30 08:29:33;;;;;;;25.55;12.43;;;;;;;;;;5057097;28;20033;-79
2022/01/30 08:31:59;;;;;;;24.48;11.23;;;;;;;;;;5061908;28;20025;-78
2022/01/30 08:34:25;;;;;;;19.73;9.27;;;;;;;;;;5052872;28;20369;-79
2022/01/30 08:36:51;;;;;;;19.70;9.27;;;;;;;;;;5054446;28;20087;-79
2022/01/30 08:39:17;;;;;;;18.88;8.82;;;;;;;;;;5055254;28;20028;-79
2022/01/30 08:41:43;;;;;;;18.88;8.25;;;;;;;;;;5052963;28;20070;-78
2022/01/30 08:44:11;;;;;;;15.45;9.00;;;;;;;;;;5050729;28;20028;-79
2022/01/30 08:46:36;;;;;;;21.13;8.68;;;;;;;;;;5052857;28;20025;-78
2022/01/30 08:49:02;;;;;;;19.55;10.05;;;;;;;;;;5054992;28;20031;-78
2022/01/30 08:51:28;;;;;;;16.13;8.85;;;;;;;;;;5061025;28;20032;-78
2022/01/30 08:53:54;;;;;;;16.30;7.35;;;;;;;;;;5058433;28;20063;-78
2022/01/30 08:56:21;;;;;;;16.52;8.70;;;;;;;;;;5056375;28;20119;-77
2022/01/30 08:58:48;;;;;;;16.95;9.27;;;;;;;;;;5059166;28;20029;-78
2022/01/30 09:01:14;;;;;;;16.38;8.85;;;;;;;;;;5055328;28;20455;-79
2022/01/30 09:03:40;;;;;;;19.75;9.35;;;;;;;;;;5053817;28;20057;-78
2022/01/30 09:06:05;;;;;;;15.85;8.68;;;;;;;;;;5058845;28;20031;-79
2022/01/30 09:08:31;;;;;;;28.65;13.40;;;;;;;;;;5054089;28;20036;-80
2022/01/30 09:10:57;;;;;;;21.15;10.18;;;;;;;;;;5053735;28;20032;-79
2022/01/30 09:13:23;;;;;;;17.00;9.93;;;;;;;;;;5060332;28;20033;-77
2022/01/30 09:15:56;;;;;;;20.27;10.00;;;;;;;;;;5061353;28;20475;-79
2022/01/30 09:18:21;;;;;;;22.90;11.55;;;;;;;;;;5058291;28;20045;-78
2022/01/30 09:20:47;;;;;;;21.48;11.38;;;;;;;;;;5059091;28;20146;-78
2022/01/30 09:23:13;;;;;;;25.65;12.07;;;;;;;;;;5052935;28;20044;-80
2022/01/30 09:25:39;;;;;;;25.52;10.98;;;;;;;;;;5058118;28;20490;-78
2022/01/30 09:28:05;;;;;;;19.50;10.80;;;;;;;;;;5052547;28;20039;-78
2022/01/30 09:30:30;;;;;;;19.42;10.07;;;;;;;;;;5053292;28;20488;-79
2022/01/30 09:32:56;;;;;;;17.02;8.88;;;;;;;;;;5054189;28;20028;-79
2022/01/30 09:35:22;;;;;;;22.85;10.30;;;;;;;;;;5056880;28;20025;-80
2022/01/30 09:37:48;;;;;;;19.40;9.52;;;;;;;;;;5054534;28;20060;-79
2022/01/30 09:40:16;;;;;;;21.08;10.07;;;;;;;;;;5059353;28;20071;-79
2022/01/30 09:42:46;;;;;;;21.50;10.27;;;;;;;;;;5052296;28;20112;-79
2022/01/30 09:45:16;;;;;;;19.08;10.82;;;;;;;;;;5055120;28;20028;-78
2022/01/30 09:47:42;;;;;;;;;;;;;;;;;;5052627;28;20091;-78
2022/01/30 09:50:09;;;;;;;20.38;9.70;;;;;;;;;;5063384;28;19920;-79
2022/01/30 09:52:36;;;;;;;22.92;10.57;;;;;;;;;;5059269;28;20027;-79
2022/01/30 09:55:04;;;;;;;19.77;10.45;;;;;;;;;;5058600;28;20480;-78
2022/01/30 09:57:29;;;;;;;30.38;17.63;;;;;;;;;;5062530;28;20044;-79
2022/01/30 09:59:56;;;;;;;30.45;15.65;;;;;;;;;;5062175;28;20035;-80
2022/01/30 10:02:25;;;;;;;22.15;10.75;;;;;;;;;;5062607;28;20052;-78
2022/01/30 10:04:52;;;;;;;18.25;10.07;;;;;;;;;;5050458;28;20020;-78
2022/01/30 10:07:20;;;;;;;13.52;8.00;;;;;;;;;;5058364;28;20028;-78
2022/01/30 10:09:49;;;;;;;23.77;11.00;;;;;;;;;;5061697;28;20029;-78
2022/01/30 10:12:20;;;;;;;17.75;10.00;;;;;;;;;;5056491;28;20025;-79
2022/01/30 10:14:59;;;;;;;19.25;11.05;;;;;;;;;;5059674;28;20025;-79
2022/01/30 10:17:32;;;;;;;16.27;8.65;;;;;;;;;;5048544;28;20048;-80
2022/01/30 10:20:10;;;;;;;16.20;8.65;;;;;;;;;;5063124;28;20033;-79
2022/01/30 10:22:50;;;;;;;16.25;8.68;;;;;;;;;;5056181;28;20029;-80
2022/01/30 10:25:23;;;;;;;16.35;9.18;;;;;;;;;;5056784;28;20028;-79
2022/01/30 10:28:03;;;;;;;15.80;8.70;;;;;;;;;;5061214;28;20532;-79
2022/01/30 10:30:29;;;;;;;22.50;9.43;;;;;;;;;;5049829;28;20388;-78
2022/01/30 10:32:56;;;;;;;16.95;9.32;;;;;;;;;;5052251;28;20025;-78
2022/01/30 10:35:23;;;;;;;19.63;8.20;;;;;;;;;;5048618;28;20477;-79
2022/01/30 10:37:49;;;;;;;15.25;8.27;;;;;;;;;;5053279;28;20743;-78
2022/01/30 10:40:19;;;;;;;16.48;9.52;;;;;;;;;;5047179;28;20027;-77
2022/01/30 10:42:50;;;;;;;19.25;9.10;;;;;;;;;;5058791;28;20029;-78
2022/01/30 10:45:29;;;;;;;19.65;8.50;;;;;;;;;;5051481;28;20496;-78
2022/01/30 10:48:16;;;;;;;16.27;8.43;;;;;;;;;;5053931;28;20020;-79
2022/01/30 10:50:44;;;;;;;18.88;7.97;;;;;;;;;;5056822;28;20033;-80
2022/01/30 10:53:21;;;;;;;18.08;8.63;;;;;;;;;;5054586;28;20044;-79
2022/01/30 10:55:48;;;;;;;16.02;8.27;;;;;;;;;;5053526;28;20071;-81
2022/01/30 10:58:21;;;;;;;22.63;10.88;;;;;;;;;;5060221;28;20456;-80
2022/01/30 11:00:55;;;;;;;16.17;8.05;;;;;;;;;;5053989;28;20029;-79
2022/01/30 11:03:41;;;;;;;22.08;9.93;;;;;;;;;;5053677;28;20047;-79
2022/01/30 11:06:10;;;;;;;28.95;12.57;;;;;;;;;;5052720;28;20104;-79
2022/01/30 11:08:40;;;;;;;24.02;12.27;;;;;;;;;;5050828;28;20013;-79
2022/01/30 11:11:33;;;;;;;32.05;16.08;;;;;;;;;;5049406;28;20037;-78
2022/01/30 11:19:18;;;;;;;18.05;9.88;;;;;;;;;;5050759;28;20044;-78
2022/01/30 11:21:50;;;;;;;18.63;8.68;;;;;;;;;;5050662;28;20036;-79
2022/01/30 11:24:19;;;;;;;16.30;8.25;;;;;;;;;;5050718;28;20480;-79
2022/01/30 11:26:46;;;;;;;22.05;9.75;;;;;;;;;;5050150;28;20025;-79
2022/01/30 11:29:14;;;;;;;24.40;11.90;;;;;;;;;;5050486;28;20036;-80
2022/01/30 11:31:40;;;;;;;20.73;10.02;;;;;;;;;;5050658;28;20021;-78
2022/01/30 11:34:07;;;;;;;26.95;13.50;;;;;;;;;;5050647;28;20039;-79
2022/01/30 11:36:43;;;;;;;23.20;10.55;;;;;;;;;;5049447;28;20029;-79
2022/01/30 11:39:14;;;;;;;19.10;9.50;;;;;;;;;;5049156;28;20111;-78
2022/01/30 11:41:39;;;;;;;24.73;10.10;;;;;;;;;;5050667;28;20025;-79
2022/01/30 11:44:17;;;;;;;18.90;10.57;;;;;;;;;;5050948;28;20151;-77
2022/01/30 11:47:03;;;;;;;18.20;10.25;;;;;;;;;;5051743;28;20028;-80
2022/01/30 11:49:39;;;;;;;20.45;10.45;;;;;;;;;;5044164;28;20442;-78
2022/01/30 11:52:10;;;;;;;18.95;9.70;;;;;;;;;;5050752;28;20078;-79
2022/01/30 11:54:41;;;;;;;16.67;9.90;;;;;;;;;;5057637;28;20085;-77
2022/01/30 11:57:21;;;;;;;19.45;10.82;;;;;;;;;;5054419;28;20025;-78
2022/01/30 11:59:50;;;;;;;24.17;9.82;;;;;;;;;;5060524;28;20033;-77
2022/01/30 12:02:25;;;;;;;20.08;10.73;;;;;;;;;;5052840;28;20477;-79
2022/01/30 12:05:06;;;;;;;85.70;45.67;;;;;;;;;;5054081;28;20539;-78
2022/01/30 12:07:46;;;;;;;39.15;20.38;;;;;;;;;;5052318;28;20033;-80
2022/01/30 12:10:21;;;;;;;20.85;13.15;;;;;;;;;;5054083;28;20473;-79
2022/01/30 12:13:04;;;;;;;19.02;10.98;;;;;;;;;;5053902;28;20025;-79
2022/01/30 12:15:42;;;;;;;19.80;11.13;;;;;;;;;;5053614;28;20390;-80
2022/01/30 12:18:28;;;;;;;17.95;9.63;;;;;;;;;;5048523;28;20040;-78
2022/01/30 12:20:59;;;;;;;25.63;13.88;;;;;;;;;;5054175;28;20127;-79
2022/01/30 12:23:33;;;;;;;23.92;12.50;;;;;;;;;;5054021;28;20039;-78
2022/01/30 12:26:03;;;;;;;26.42;13.70;;;;;;;;;;5054322;28;20171;-76
2022/01/30 12:28:51;;;;;;;27.80;13.38;;;;;;;;;;5053635;28;20510;-78
2022/01/30 12:31:38;;;;;;;110.05;59.55;;;;;;;;;;5048722;28;20029;-77
2022/01/30 12:34:09;;;;;;;32.40;16.83;;;;;;;;;;5068895;28;20028;-78
2022/01/30 12:36:37;;;;;;;37.20;20.63;;;;;;;;;;5053264;28;20028;-78
2022/01/30 12:39:04;;;;;;;23.85;13.40;;;;;;;;;;5053397;28;20150;-79
2022/01/30 12:41:31;;;;;;;35.35;18.25;;;;;;;;;;5053482;28;20045;-77
2022/01/30 12:43:59;;;;;;;33.35;17.45;;;;;;;;;;5058621;28;20472;-78
2022/01/30 12:46:27;;;;;;;37.28;18.85;;;;;;;;;;5053404;28;20541;-78
2022/01/30 12:49:05;;;;;;;35.88;16.88;;;;;;;;;;5052816;28;20036;-79
2022/01/30 12:51:31;;;;;;;30.65;14.68;;;;;;;;;;5053383;28;20029;-78
2022/01/30 12:53:58;;;;;;;26.83;14.93;;;;;;;;;;5055177;28;20032;-78
2022/01/30 12:56:25;;;;;;;26.80;14.38;;;;;;;;;;5061740;28;20032;-79
2022/01/30 12:58:55;;;;;;;20.80;11.68;;;;;;;;;;5057787;28;20037;-76
2022/01/30 13:01:25;;;;;;;23.25;12.77;;;;;;;;;;5059111;28;20102;-78
2022/01/30 13:04:15;;;;;;;27.63;13.07;;;;;;;;;;5051673;28;20396;-78
2022/01/30 13:06:58;;;;;;;26.30;14.18;;;;;;;;;;5049376;28;20486;-78
2022/01/30 13:09:26;;;;;;;29.48;15.75;;;;;;;;;;5050278;28;20048;-80
2022/01/30 13:11:52;;;;;;;31.80;15.45;;;;;;;;;;5052552;28;20109;-77
2022/01/30 13:14:19;;;;;;;33.55;15.30;;;;;;;;;;5052845;28;20032;-78
2022/01/30 13:16:50;;;;;;;26.02;14.43;;;;;;;;;;5052897;28;20071;-79
2022/01/30 13:19:38;;;;;;;36.35;20.45;;;;;;;;;;5053013;28;20031;-79
2022/01/30 13:22:06;;;;;;;19.75;10.88;;;;;;;;;;5053688;28;20024;-77
2022/01/30 13:24:32;;;;;;;27.83;14.93;;;;;;;;;;5058759;28;20029;-77
2022/01/30 13:27:01;;;;;;;23.05;9.65;;;;;;;;;;5051940;28;20066;-78
2022/01/30 13:29:30;;;;;;;4.97;2.67;;;;;;;;;;5052890;28;20033;-78
2022/01/30 13:31:57;;;;;;;3.88;2.60;;;;;;;;;;5053957;28;20021;-78
2022/01/30 13:34:33;;;;;;;3.63;2.25;;;;;;;;;;5052453;28;20047;-79
2022/01/30 13:37:08;;;;;;;4.07;2.15;;;;;;;;;;5048967;28;20033;-79
2022/01/30 13:40:20;;;;;;;6.30;3.00;;;;;;;;;;5052455;28;20107;-78
2022/01/30 13:43:11;;;;;;;2.83;1.48;;;;;;;;;;5052305;28;20553;-78
2022/01/30 13:48:09;;;;;;;2.15;1.60;;;;;;;;;;5052013;28;20021;-79
2022/01/30 13:50:43;;;;;;;2.88;1.58;;;;;;;;;;5052008;28;20101;-83
2022/01/30 13:53:24;;;;;;;1.88;0.90;;;;;;;;;;5050628;28;20476;-79
2022/01/30 13:56:16;;;;;;;2.95;2.42;;;;;;;;;;5046520;28;20024;-76
2022/01/30 13:58:43;;;;;;;2.55;1.40;;;;;;;;;;5051915;28;20017;-78
2022/01/30 14:01:30;;;;;;;6.38;2.90;;;;;;;;;;5052065;28;20040;-78
2022/01/30 14:04:11;;;;;;;1.45;1.20;;;;;;;;;;5051884;28;20016;-78
2022/01/30 14:06:39;;;;;;;1.90;1.35;;;;;;;;;;5049160;28;20047;-77
2022/01/30 14:09:13;;;;;;;2.13;1.30;;;;;;;;;;5051824;28;20492;-78
2022/01/30 14:11:42;;;;;;;2.97;1.60;;;;;;;;;;5053647;28;20681;-81
2022/01/30 14:14:09;;;;;;;2.15;1.40;;;;;;;;;;5055672;28;20025;-77
2022/01/30 14:16:37;;;;;;;2.47;1.60;;;;;;;;;;5050570;28;20029;-78
2022/01/30 14:19:14;;;;;;;5.53;3.20;;;;;;;;;;5051678;28;20029;-79
2022/01/30 14:21:40;;;;;;;4.35;2.75;;;;;;;;;;5051630;28;20028;-78
2022/01/30 14:24:19;;;;;;;4.28;3.10;;;;;;;;;;5050297;28;20140;-77
2022/01/30 14:26:45;;;;;;;9.60;4.30;;;;;;;;;;5048522;28;20017;-78
2022/01/30 14:29:20;;;;;;;5.40;2.78;;;;;;;;;;5050189;28;20086;-77
2022/01/30 14:32:01;;;;;;;8.40;4.50;;;;;;;;;;5048482;28;20028;-77
2022/01/30 14:34:28;;;;;;;9.57;5.40;;;;;;;;;;5048832;28;20028;-82
2022/01/30 14:36:59;;;;;;;3.60;2.40;;;;;;;;;;5051278;28;20036;-79
2022/01/30 14:39:25;;;;;;;5.80;3.08;;;;;;;;;;5055648;28;20403;-79
2022/01/30 14:41:51;;;;;;;10.65;5.15;;;;;;;;;;5058709;28;20510;-80
2022/01/30 14:44:18;;;;;;;13.60;7.45;;;;;;;;;;5054022;28;20021;-79
2022/01/30 14:46:44;;;;;;;10.57;5.80;;;;;;;;;;5051626;28;20017;-80
2022/01/30 14:49:09;;;;;;;5.93;3.85;;;;;;;;;;5058530;28;20105;-80
2022/01/30 14:51:35;;;;;;;4.90;2.88;;;;;;;;;;5053109;28;20112;-79
2022/01/30 14:54:01;;;;;;;10.18;6.13;;;;;;;;;;5047463;28;20129;-81
2022/01/30 14:56:26;;;;;;;4.32;2.60;;;;;;;;;;5056851;28;20104;-81
2022/01/30 14:58:52;;;;;;;1.65;0.90;;;;;;;;;;5055987;28;20453;-80
2022/01/30 15:01:17;;;;;;;2.00;1.33;;;;;;;;;;5056088;28;20436;-79
2022/01/30 15:03:43;;;;;;;4.55;2.30;;;;;;;;;;5057827;28;20074;-80
2022/01/30 15:06:08;;;;;;;7.15;3.20;;;;;;;;;;5057883;28;20096;-79
2022/01/30 15:08:35;;;;;;;11.18;5.50;;;;;;;;;;5053599;28;20059;-79
2022/01/30 15:11:00;;;;;;;6.88;3.53;;;;;;;;;;5055291;28;20032;-78
2022/01/30 15:13:25;;;;;;;9.40;4.07;;;;;;;;;;5055127;28;20086;-79
2022/01/30 15:15:52;;;;;;;7.57;3.80;;;;;;;;;;5052941;28;20107;-80
2022/01/30 15:18:24;;;;;;;6.50;3.08;;;;;;;;;;5058832;28;20119;-81
2022/01/30 15:20:50;;;;;;;4.25;2.90;;;;;;;;;;5059800;28;20021;-81
2022/01/30 15:23:16;;;;;;;3.67;2.33;;;;;;;;;;5057122;28;20401;-79
2022/01/30 15:25:42;;;;;;;5.57;3.53;;;;;;;;;;5061473;28;20029;-80
2022/01/30 15:28:08;;;;;;;6.05;3.20;;;;;;;;;;5054321;28;20020;-80
2022/01/30 15:30:34;;;;;;;5.65;3.40;;;;;;;;;;5054196;28;20144;-78
2022/01/30 15:32:59;;;;;;;8.50;3.65;;;;;;;;;;5054211;28;20108;-80
2022/01/30 15:35:25;;;;;;;9.55;6.13;;;;;;;;;;5054925;28;20064;-78
2022/01/30 15:37:51;;;;;;;7.30;4.10;;;;;;;;;;5057606;28;20051;-79
2022/01/30 15:40:17;;;;;;;7.70;4.72;;;;;;;;;;5053052;28;20514;-79
2022/01/30 15:42:43;;;;;;;8.35;4.70;;;;;;;;;;5055259;28;20131;-80
2022/01/30 15:50:27;;;;;;;5.60;3.25;;;;;;;;;;5054636;28;20120;-77
2022/01/30 15:52:56;;;;;;;9.20;5.50;;;;;;;;;;5053263;28;20083;-80
2022/01/30 15:55:22;;;;;;;11.75;6.13;;;;;;;;;;5054359;28;20130;-79
2022/01/30 15:57:50;;;;;;;13.38;6.57;;;;;;;;;;5052744;28;20033;-79
2022/01/30 16:00:16;;;;;;;12.05;6.90;;;;;;;;;;5058251;28;20029;-80
2022/01/30 16:02:42;;;;;;;13.55;8.75;;;;;;;;;;5056199;28;20037;-79
2022/01/30 16:05:08;;;;;;;12.02;7.22;;;;;;;;;;5055124;28;20028;-79
2022/01/30 16:07:34;;;;;;;11.70;7.93;;;;;;;;;;5055981;28;20021;-78